M I D A S
Marine Information and Data Acquisition System
Tripno 1593 of the Zeeleeuw from 2008-10-22 06:58:39 to 2008-10-22 11:53:53
Back to CruiseResearch ActivitiesStationsMapUnderway DataData graphs

EquipmentUnitsComment
TimeDGPSUTC
LatitudeDGPSDM.mWGS84
LongitudeDGPSDM.mWGS84
HeadingGyrodeg 
SOGDGPSknotsSpeed over ground
COGDGPSdegCourse over ground
DepthEcho soundermeters200 kHz
Missing or incorrect values are displayed as -999
Navigation data collected by the RV Zeeleeuw from 2008-10-22 06:54:10 to 2008-10-22 11:56:52
                                                                                    Next 1000 lines
Time Latitude Longitude Heading SOG COG Depth
2008-10-22 06:54:20 51°13.622 2°56.044 109.5 1.1 289 9.9
2008-10-22 06:54:25 51°13.623 2°56.041 109.2 1.5 293 9.9
2008-10-22 06:54:30 51°13.624 2°56.037 109.1 1.9 292 9.7
2008-10-22 06:54:35 51°13.625 2°56.032 109.4 2.3 295 9.9
2008-10-22 06:54:40 51°13.627 2°56.027 110.2 2.7 295 -999
2008-10-22 06:54:45 51°13.629 2°56.021 111.4 3 296 -999
2008-10-22 06:54:50 51°13.631 2°56.014 112 3.3 295 -999
2008-10-22 06:54:55 51°13.633 2°56.007 112.2 3.6 295 -999
2008-10-22 06:55:00 51°13.635 2°56 112.2 3.8 295 -999
2008-10-22 06:55:05 51°13.638 2°55.992 112.2 3.9 294 -999
2008-10-22 06:55:10 51°13.64 2°55.983 112.2 4 294 -999
2008-10-22 06:55:15 51°13.642 2°55.975 112.2 4.1 293 -999
2008-10-22 06:55:20 51°13.644 2°55.967 112.1 4.2 293 -999
2008-10-22 06:55:25 51°13.647 2°55.958 112.1 4.4 293 -999
2008-10-22 06:55:30 51°13.649 2°55.949 112.4 4.5 293 -999
2008-10-22 06:55:35 51°13.652 2°55.939 113.1 4.6 294 -999
2008-10-22 06:55:40 51°13.654 2°55.93 113.9 4.7 293 -999
2008-10-22 06:55:45 51°13.657 2°55.92 114.1 4.7 295 -999
2008-10-22 06:55:50 51°13.66 2°55.911 114.2 4.8 295 -999
2008-10-22 06:55:55 51°13.662 2°55.901 114.4 4.8 296 -999
2008-10-22 06:56:00 51°13.665 2°55.891 114.3 4.8 295 -999
2008-10-22 06:56:05 51°13.668 2°55.882 114.1 4.8 296 -999
2008-10-22 06:56:10 51°13.671 2°55.872 113.5 4.8 295 -999
2008-10-22 06:56:15 51°13.674 2°55.863 112.8 4.5 295 -999
2008-10-22 06:56:20 51°13.676 2°55.855 112.1 4.2 294 -999
2008-10-22 06:56:25 51°13.679 2°55.847 111.3 4.1 294 -999
2008-10-22 06:56:30 51°13.681 2°55.839 110.3 3.9 293 -999
2008-10-22 06:56:35 51°13.683 2°55.831 109.5 3.9 293 -999
2008-10-22 06:56:40 51°13.685 2°55.823 108.3 3.8 293 11.7
2008-10-22 06:56:45 51°13.687 2°55.815 107.4 3.7 291 -999
2008-10-22 06:56:50 51°13.689 2°55.808 105.6 3.6 290 -999
2008-10-22 06:56:55 51°13.69 2°55.801 103.3 3.5 289 -999
2008-10-22 06:57:00 51°13.691 2°55.793 100.7 3.4 287 -999
2008-10-22 06:57:05 51°13.692 2°55.786 98.3 3.3 285 -999
2008-10-22 06:57:10 51°13.693 2°55.779 96.4 3.2 281 -999
2008-10-22 06:57:15 51°13.694 2°55.773 93.9 3.1 280 -999
2008-10-22 06:57:20 51°13.695 2°55.767 90.9 2.9 277 -999
2008-10-22 06:57:25 51°13.695 2°55.761 89 2.8 276 -999
2008-10-22 06:57:30 51°13.695 2°55.755 87.5 2.6 273 -999
2008-10-22 06:57:35 51°13.695 2°55.749 85.5 2.5 272 -999
2008-10-22 06:57:40 51°13.695 2°55.744 84 2.3 270 14.1
2008-10-22 06:57:45 51°13.695 2°55.74 82.4 2.1 269 13.9
2008-10-22 06:57:50 51°13.695 2°55.736 81 1.9 269 13.7
2008-10-22 06:57:55 51°13.695 2°55.732 79.5 1.6 267 13.9
2008-10-22 06:58:00 51°13.695 2°55.73 77.3 1.2 267 13.8
2008-10-22 06:58:05 51°13.695 2°55.728 74.4 0.8 268 14.1
2008-10-22 06:58:10 51°13.695 2°55.727 71 0.5 276 14.3
2008-10-22 06:58:15 51°13.695 2°55.726 67.3 0.3 292 14.4
2008-10-22 06:58:20 51°13.695 2°55.726 63.3 0.2 357 14.6
2008-10-22 06:58:25 51°13.696 2°55.726 59.4 0.4 23 14.6
2008-10-22 06:58:30 51°13.696 2°55.727 55.1 0.6 32 14.6
2008-10-22 06:58:35 51°13.697 2°55.728 50.6 0.8 33 14.7
2008-10-22 06:58:40 51°13.699 2°55.729 45.9 1 33 15.1
2008-10-22 06:58:45 51°13.7 2°55.731 41.1 1.2 30 14.9
2008-10-22 06:58:50 51°13.702 2°55.732 36.3 1.4 25 14.3
2008-10-22 06:58:55 51°13.704 2°55.733 31.4 1.7 21 14
2008-10-22 06:59:00 51°13.707 2°55.734 26.5 2.2 14 14
2008-10-22 06:59:05 51°13.711 2°55.735 20.5 2.8 7 14.2
2008-10-22 06:59:10 51°13.715 2°55.735 13 3.2 359 14.3
2008-10-22 06:59:15 51°13.72 2°55.734 4.3 3.5 353 14.8
2008-10-22 06:59:20 51°13.725 2°55.731 355.7 4 343 14.4
2008-10-22 06:59:25 51°13.731 2°55.727 346.8 4.5 337 14.3
2008-10-22 06:59:30 51°13.737 2°55.722 338.9 4.9 332 13
2008-10-22 06:59:35 51°13.744 2°55.716 332.9 5.4 331 13.3
2008-10-22 06:59:40 51°13.751 2°55.709 330 5.8 329 13.7
2008-10-22 06:59:45 51°13.758 2°55.703 329 6.2 330 13.4
2008-10-22 06:59:50 51°13.766 2°55.695 329 6.5 329 13
2008-10-22 06:59:55 51°13.774 2°55.688 329.7 6.7 331 12.8
2008-10-22 07:00:00 51°13.782 2°55.68 330.9 7 330 12.8
2008-10-22 07:00:05 51°13.791 2°55.672 331.2 7.2 331 12.7
2008-10-22 07:00:10 51°13.8 2°55.665 331.3 7.4 331 12.8
2008-10-22 07:00:15 51°13.809 2°55.657 331.8 7.5 332 13
2008-10-22 07:00:20 51°13.819 2°55.649 332.3 7.7 332 13.2
2008-10-22 07:00:25 51°13.828 2°55.641 332.5 7.8 334 13.3
2008-10-22 07:00:30 51°13.838 2°55.633 333.2 8 333 13.2
2008-10-22 07:00:35 51°13.848 2°55.625 333.7 8.1 333 13.2
2008-10-22 07:00:40 51°13.858 2°55.617 333.8 8.1 333 13.1
2008-10-22 07:00:45 51°13.868 2°55.608 333.3 8.2 332 13.1
2008-10-22 07:00:50 51°13.879 2°55.6 332.9 8.2 334 13.2
2008-10-22 07:00:55 51°13.889 2°55.592 333.7 8.3 334 13.2
2008-10-22 07:01:00 51°13.899 2°55.584 333.9 8.3 333 13.3
2008-10-22 07:01:05 51°13.91 2°55.575 333.5 8.4 333 13.1
2008-10-22 07:01:10 51°13.92 2°55.567 333.3 8.4 333 13.4
2008-10-22 07:01:15 51°13.931 2°55.559 333.1 8.4 333 13.2
2008-10-22 07:01:20 51°13.941 2°55.551 333.1 8.5 333 13.2
2008-10-22 07:01:25 51°13.952 2°55.542 333.1 8.5 333 13.2
2008-10-22 07:01:30 51°13.962 2°55.533 332.7 8.5 333 13
2008-10-22 07:01:35 51°13.973 2°55.525 332.7 8.5 333 13.1
2008-10-22 07:01:40 51°13.983 2°55.517 333.2 8.5 333 13.1
2008-10-22 07:01:45 51°13.993 2°55.508 333.5 8.5 333 13
2008-10-22 07:01:50 51°14.004 2°55.5 333.3 8.5 333 12.9
2008-10-22 07:01:55 51°14.015 2°55.492 333.8 8.5 335 12.7
2008-10-22 07:02:00 51°14.025 2°55.484 335 8.5 335 12.3
2008-10-22 07:02:05 51°14.036 2°55.476 335.3 8.5 335 12.3
2008-10-22 07:02:10 51°14.047 2°55.468 335.9 8.5 336 12.7
2008-10-22 07:02:15 51°14.057 2°55.461 336.4 8.5 335 12.8
2008-10-22 07:02:20 51°14.068 2°55.453 336.5 8.5 336 12.8
2008-10-22 07:02:25 51°14.079 2°55.445 335.9 8.5 334 12.5
2008-10-22 07:02:30 51°14.089 2°55.437 335 8.5 335 12.4
2008-10-22 07:02:35 51°14.1 2°55.428 334.7 8.5 334 12.1
2008-10-22 07:02:40 51°14.11 2°55.42 334.3 8.5 332 12.3
2008-10-22 07:02:45 51°14.121 2°55.411 333.1 8.5 332 12.4
2008-10-22 07:02:50 51°14.131 2°55.402 332.3 8.5 332 12.7
2008-10-22 07:02:55 51°14.142 2°55.393 332.1 8.5 331 12.6
2008-10-22 07:03:00 51°14.152 2°55.383 331.8 8.5 330 12.9
2008-10-22 07:03:05 51°14.162 2°55.374 330.9 8.5 329 12.9
2008-10-22 07:03:10 51°14.172 2°55.363 329.9 8.6 328 12.9
2008-10-22 07:03:15 51°14.182 2°55.353 328.7 8.6 327 12.7
2008-10-22 07:03:20 51°14.192 2°55.342 328 8.7 327 12.7
2008-10-22 07:03:25 51°14.202 2°55.332 327.5 8.9 326 12.9
2008-10-22 07:03:30 51°14.213 2°55.32 327 9.1 324 12.8
2008-10-22 07:03:35 51°14.223 2°55.307 325.3 9.2 321 12.6
2008-10-22 07:03:40 51°14.232 2°55.293 322.7 9.3 319 12.5
2008-10-22 07:03:45 51°14.242 2°55.28 320.7 9.5 319 12.7
2008-10-22 07:03:50 51°14.252 2°55.265 319.3 9.7 317 12.6
2008-10-22 07:03:55 51°14.261 2°55.249 317.5 9.8 315 12.6
2008-10-22 07:04:00 51°14.271 2°55.234 315.9 9.9 315 12.4
2008-10-22 07:04:05 51°14.28 2°55.218 315.4 10 313 12.2
2008-10-22 07:04:10 51°14.289 2°55.201 314.2 10 312 12.2
2008-10-22 07:04:15 51°14.298 2°55.183 312.2 10 308 12.3
2008-10-22 07:04:20 51°14.307 2°55.166 309.8 10.1 308 12.1
2008-10-22 07:04:25 51°14.315 2°55.148 308.4 10.1 306 12.3
2008-10-22 07:04:30 51°14.323 2°55.129 307 10.2 305 12.6
2008-10-22 07:04:35 51°14.331 2°55.111 305.4 10.2 304 12.6
2008-10-22 07:04:40 51°14.339 2°55.092 304.6 10.2 303 12.8
2008-10-22 07:04:45 51°14.347 2°55.073 303.5 10.3 304 12.8
2008-10-22 07:04:50 51°14.354 2°55.054 303.5 10.2 303 12.7
2008-10-22 07:04:55 51°14.361 2°55.034 303.6 10.2 301 12.7
2008-10-22 07:05:00 51°14.368 2°55.015 302.1 10.2 300 12.3
2008-10-22 07:05:05 51°14.376 2°54.995 300 10.3 301 12.1
2008-10-22 07:05:10 51°14.384 2°54.976 300 10.4 302 12.1
2008-10-22 07:05:15 51°14.392 2°54.957 301 10.6 304 12.3
2008-10-22 07:05:20 51°14.401 2°54.937 302.2 10.8 306 12.2
2008-10-22 07:05:25 51°14.41 2°54.917 302.9 11 305 12.5
2008-10-22 07:05:30 51°14.418 2°54.897 301.5 11.1 302 12.4
2008-10-22 07:05:35 51°14.427 2°54.876 299.3 11.3 303 12.6
2008-10-22 07:05:40 51°14.436 2°54.854 298.4 11.5 303 12.7
2008-10-22 07:05:45 51°14.444 2°54.833 298.2 11.5 304 12.8
2008-10-22 07:05:50 51°14.453 2°54.812 298.9 11.6 303 13
2008-10-22 07:05:55 51°14.461 2°54.789 298.7 11.6 300 13
2008-10-22 07:06:00 51°14.469 2°54.767 297.4 11.7 300 12.9
2008-10-22 07:06:05 51°14.477 2°54.745 296.8 11.8 301 13
2008-10-22 07:06:10 51°14.485 2°54.722 296.9 11.7 300 13
2008-10-22 07:06:15 51°14.494 2°54.7 296.9 11.8 300 13
2008-10-22 07:06:20 51°14.502 2°54.677 296.8 11.7 300 13.2
2008-10-22 07:06:25 51°14.51 2°54.655 296.4 11.7 300 13.1
2008-10-22 07:06:30 51°14.518 2°54.632 296.3 11.7 300 13.4
2008-10-22 07:06:35 51°14.526 2°54.61 296.6 11.8 300 13.2
2008-10-22 07:06:40 51°14.535 2°54.587 297 11.8 301 13.2
2008-10-22 07:06:45 51°14.543 2°54.565 297.1 11.8 300 13.1
2008-10-22 07:06:50 51°14.551 2°54.542 296.9 11.8 300 13
2008-10-22 07:06:55 51°14.559 2°54.519 297 11.8 298 13
2008-10-22 07:07:00 51°14.566 2°54.496 295.6 11.8 299 13.1
2008-10-22 07:07:05 51°14.574 2°54.473 295.1 11.8 297 12.8
2008-10-22 07:07:10 51°14.581 2°54.45 294.2 11.8 297 12.9
2008-10-22 07:07:15 51°14.589 2°54.427 294 11.7 297 12.8
2008-10-22 07:07:20 51°14.595 2°54.404 293.6 11.7 295 12.9
2008-10-22 07:07:25 51°14.602 2°54.381 292.4 11.7 295 12.9
2008-10-22 07:07:30 51°14.608 2°54.357 291.6 11.6 293 12.9
2008-10-22 07:07:35 51°14.615 2°54.333 290.2 11.7 292 12.9
2008-10-22 07:07:40 51°14.62 2°54.309 289.2 11.7 290 13
2008-10-22 07:07:45 51°14.626 2°54.285 287.8 11.7 290 13.2
2008-10-22 07:07:50 51°14.631 2°54.26 286.8 11.6 289 13.2
2008-10-22 07:07:55 51°14.636 2°54.236 286.2 11.6 289 13.3
2008-10-22 07:08:00 51°14.641 2°54.212 285.3 11.7 288 13.2
2008-10-22 07:08:05 51°14.646 2°54.187 285.1 11.6 287 13.4
2008-10-22 07:08:10 51°14.651 2°54.163 284.5 11.6 288 13.8
2008-10-22 07:08:15 51°14.656 2°54.138 284.2 11.5 286 13.1
2008-10-22 07:08:20 51°14.66 2°54.114 283.2 11.5 286 13
2008-10-22 07:08:25 51°14.664 2°54.089 282.3 11.5 285 13.5
2008-10-22 07:08:30 51°14.668 2°54.064 281.7 11.5 284 12.9
2008-10-22 07:08:35 51°14.673 2°54.04 281.4 11.5 284 13.1
2008-10-22 07:08:40 51°14.676 2°54.015 280.8 11.5 285 13.1
2008-10-22 07:08:45 51°14.68 2°53.991 281 11.5 284 12.9
2008-10-22 07:08:50 51°14.684 2°53.966 280.8 11.5 284 13.3
2008-10-22 07:08:55 51°14.688 2°53.941 280.5 11.5 284 12.9
2008-10-22 07:09:00 51°14.692 2°53.917 280.3 11.4 284 12.7
2008-10-22 07:09:05 51°14.696 2°53.892 280.5 11.5 284 12.9
2008-10-22 07:09:10 51°14.699 2°53.867 280.7 11.5 283 12.7
2008-10-22 07:09:15 51°14.703 2°53.842 280.1 11.5 284 12.6
2008-10-22 07:09:20 51°14.707 2°53.818 280.5 11.5 283 12.6
2008-10-22 07:09:25 51°14.711 2°53.793 280.3 11.5 283 12.5
2008-10-22 07:09:30 51°14.714 2°53.768 280.1 11.5 284 12.5
2008-10-22 07:09:35 51°14.718 2°53.743 280.7 11.6 283 12.4
2008-10-22 07:09:40 51°14.722 2°53.718 280.5 11.6 283 12.4
2008-10-22 07:09:45 51°14.725 2°53.693 280.4 11.6 283 12.2
2008-10-22 07:09:50 51°14.729 2°53.668 280.8 11.6 283 12.3
2008-10-22 07:09:55 51°14.733 2°53.643 280.7 11.6 283 12
2008-10-22 07:10:00 51°14.736 2°53.618 280.7 11.6 284 12.1
2008-10-22 07:10:05 51°14.74 2°53.593 280.5 11.6 283 12.2
2008-10-22 07:10:10 51°14.744 2°53.568 280.8 11.7 284 12.3
2008-10-22 07:10:15 51°14.747 2°53.542 281.1 11.7 283 12.3
2008-10-22 07:10:20 51°14.751 2°53.517 280.8 11.7 284 12.3
2008-10-22 07:10:25 51°14.755 2°53.492 281 11.7 283 12.6
2008-10-22 07:10:30 51°14.759 2°53.467 281.1 11.7 284 12.5
2008-10-22 07:10:35 51°14.762 2°53.442 281.1 11.6 283 12.5
2008-10-22 07:10:40 51°14.766 2°53.417 281.1 11.7 282 12.7
2008-10-22 07:10:45 51°14.769 2°53.392 280.4 11.7 282 12.6
2008-10-22 07:10:50 51°14.773 2°53.367 279.8 11.7 283 12.6
2008-10-22 07:10:55 51°14.777 2°53.342 280.2 11.7 282 12.5
2008-10-22 07:11:00 51°14.78 2°53.316 280.1 11.7 282 12.4
2008-10-22 07:11:05 51°14.784 2°53.291 280 11.7 282 12.2
2008-10-22 07:11:10 51°14.787 2°53.266 280 11.7 283 12.1
2008-10-22 07:11:15 51°14.791 2°53.241 279.8 11.7 284 12.1
2008-10-22 07:11:20 51°14.794 2°53.215 280.7 11.7 282 11.8
2008-10-22 07:11:25 51°14.798 2°53.19 280.2 11.7 283 11.7
2008-10-22 07:11:30 51°14.801 2°53.165 279.9 11.6 282 11.7
2008-10-22 07:11:35 51°14.805 2°53.14 279.9 11.6 283 11.7
2008-10-22 07:11:40 51°14.808 2°53.114 280.1 11.7 282 11.7
2008-10-22 07:11:45 51°14.812 2°53.089 279.8 11.7 283 11.6
2008-10-22 07:11:50 51°14.816 2°53.064 280 11.7 283 11.6
2008-10-22 07:11:55 51°14.82 2°53.039 280.1 11.7 284 11.6
2008-10-22 07:12:00 51°14.823 2°53.014 280.1 11.6 284 11.5
2008-10-22 07:12:05 51°14.827 2°52.989 280.2 11.6 284 11.6
2008-10-22 07:12:10 51°14.831 2°52.965 280.3 11.6 284 11.5
2008-10-22 07:12:15 51°14.835 2°52.94 280.1 11.6 284 11.5
2008-10-22 07:12:20 51°14.838 2°52.915 280.1 11.6 282 11.5
2008-10-22 07:12:25 51°14.841 2°52.89 279.6 11.5 281 11.6
2008-10-22 07:12:30 51°14.845 2°52.865 278.7 11.5 282 11.5
2008-10-22 07:12:35 51°14.847 2°52.84 278.3 11.5 280 11.6
2008-10-22 07:12:40 51°14.85 2°52.815 277.6 11.4 280 11.7
2008-10-22 07:12:45 51°14.853 2°52.79 277.1 11.4 280 11.6
2008-10-22 07:12:50 51°14.856 2°52.765 276.7 11.5 281 11.7
2008-10-22 07:12:55 51°14.859 2°52.74 277.2 11.5 280 11.5
2008-10-22 07:13:00 51°14.861 2°52.715 276.9 11.4 280 11.5
2008-10-22 07:13:05 51°14.864 2°52.69 276.5 11.4 281 11.7
2008-10-22 07:13:10 51°14.867 2°52.665 277.2 11.5 280 11.7
2008-10-22 07:13:15 51°14.87 2°52.641 277.2 11.4 281 11.6
2008-10-22 07:13:20 51°14.873 2°52.616 277.4 11.4 280 11.7
2008-10-22 07:13:25 51°14.876 2°52.591 277.5 11.4 281 11.8
2008-10-22 07:13:30 51°14.879 2°52.566 277.7 11.4 280 11.8
2008-10-22 07:13:35 51°14.882 2°52.541 277.3 11.4 281 11.9
2008-10-22 07:13:40 51°14.885 2°52.517 277.2 11.4 280 11.8
2008-10-22 07:13:45 51°14.888 2°52.492 277.2 11.5 282 11.9
2008-10-22 07:13:50 51°14.891 2°52.467 277.9 11.5 281 11.7
2008-10-22 07:13:55 51°14.894 2°52.442 277.9 11.4 281 11.7
2008-10-22 07:14:00 51°14.897 2°52.417 277.9 11.4 282 11.9
2008-10-22 07:14:05 51°14.9 2°52.392 278.2 11.4 281 11.9
2008-10-22 07:14:10 51°14.903 2°52.368 277.9 11.5 282 11.8
2008-10-22 07:14:15 51°14.906 2°52.343 278.1 11.5 280 11.9
2008-10-22 07:14:20 51°14.91 2°52.318 277.8 11.4 282 11.8
2008-10-22 07:14:25 51°14.912 2°52.294 277.9 11.4 281 11.9
2008-10-22 07:14:30 51°14.916 2°52.269 278 11.4 282 12
2008-10-22 07:14:35 51°14.919 2°52.244 278.1 11.4 281 11.9
2008-10-22 07:14:40 51°14.922 2°52.22 278 11.4 282 12.1
2008-10-22 07:14:45 51°14.925 2°52.195 278.1 11.4 281 12.2
2008-10-22 07:14:50 51°14.928 2°52.17 277.9 11.4 282 12.1
2008-10-22 07:14:55 51°14.931 2°52.145 278.2 11.4 281 12.1
2008-10-22 07:15:00 51°14.935 2°52.121 278.3 11.4 283 12.2
2008-10-22 07:15:05 51°14.938 2°52.096 278.6 11.4 282 12.2
2008-10-22 07:15:10 51°14.941 2°52.071 278.5 11.4 282 12.3
2008-10-22 07:15:15 51°14.944 2°52.046 278.4 11.5 283 12.2
2008-10-22 07:15:20 51°14.948 2°52.022 278.9 11.4 281 12.3
2008-10-22 07:15:25 51°14.951 2°51.997 278.7 11.4 282 12.3
2008-10-22 07:15:30 51°14.954 2°51.972 278.6 11.4 282 12.4
2008-10-22 07:15:35 51°14.957 2°51.947 278.5 11.4 282 12.5
2008-10-22 07:15:40 51°14.961 2°51.923 278.5 11.5 282 12.5
2008-10-22 07:15:45 51°14.964 2°51.898 278.8 11.4 282 12.5
2008-10-22 07:15:50 51°14.967 2°51.873 279 11.4 282 12.5
2008-10-22 07:15:55 51°14.971 2°51.849 278.9 11.4 282 12.7
2008-10-22 07:16:00 51°14.974 2°51.824 278.8 11.4 283 12.7
2008-10-22 07:16:05 51°14.978 2°51.799 279.5 11.4 283 12.7
2008-10-22 07:16:10 51°14.981 2°51.775 279.6 11.4 282 12.7
2008-10-22 07:16:15 51°14.985 2°51.75 279.3 11.4 283 12.9
2008-10-22 07:16:20 51°14.988 2°51.725 279.5 11.5 282 12.9
2008-10-22 07:16:25 51°14.992 2°51.701 279.3 11.5 285 12.9
2008-10-22 07:16:30 51°14.996 2°51.676 280.2 11.5 284 13
2008-10-22 07:16:35 51°15 2°51.652 280.7 11.5 285 12.9
2008-10-22 07:16:40 51°15.004 2°51.627 281.1 11.5 285 13.3
2008-10-22 07:16:45 51°15.008 2°51.603 281.8 11.5 286 13.2
2008-10-22 07:16:50 51°15.012 2°51.578 282.2 11.5 285 13.2
2008-10-22 07:16:55 51°15.017 2°51.554 282.2 11.5 285 13.3
2008-10-22 07:17:00 51°15.021 2°51.53 282.3 11.4 286 13.1
2008-10-22 07:17:05 51°15.025 2°51.505 282.8 11.4 285 13.3
2008-10-22 07:17:10 51°15.03 2°51.481 282.3 11.4 286 13.4
2008-10-22 07:17:15 51°15.034 2°51.456 282.3 11.5 285 13.3
2008-10-22 07:17:20 51°15.038 2°51.432 282.2 11.5 286 13.4
2008-10-22 07:17:25 51°15.042 2°51.408 282 11.5 286 13.4
2008-10-22 07:17:30 51°15.047 2°51.383 282.5 11.5 286 13.6
2008-10-22 07:17:35 51°15.051 2°51.359 282.4 11.5 286 13.5
2008-10-22 07:17:40 51°15.055 2°51.334 282.4 11.4 285 13.5
2008-10-22 07:17:45 51°15.06 2°51.31 282.1 11.5 286 13.7
2008-10-22 07:17:50 51°15.064 2°51.285 282.2 11.5 285 13.6
2008-10-22 07:17:55 51°15.068 2°51.261 282.2 11.5 286 13.6
2008-10-22 07:18:00 51°15.072 2°51.236 282.1 11.5 285 13.7
2008-10-22 07:18:05 51°15.076 2°51.212 282.1 11.4 285 13.6
2008-10-22 07:18:10 51°15.08 2°51.187 281.9 11.5 285 13.9
2008-10-22 07:18:15 51°15.084 2°51.162 281.9 11.5 284 13.8
2008-10-22 07:18:20 51°15.088 2°51.138 280.8 11.5 284 13.8
2008-10-22 07:18:25 51°15.092 2°51.113 280.5 11.5 285 13.8
2008-10-22 07:18:30 51°15.096 2°51.089 281 11.5 284 13.9
2008-10-22 07:18:35 51°15.1 2°51.064 281.3 11.5 285 13.9
2008-10-22 07:18:40 51°15.104 2°51.039 281.5 11.5 285 13.9
2008-10-22 07:18:45 51°15.108 2°51.015 281.5 11.5 284 13.9
2008-10-22 07:18:50 51°15.112 2°50.99 281.2 11.5 285 13.9
2008-10-22 07:18:55 51°15.116 2°50.966 281.5 11.5 284 13.9
2008-10-22 07:19:00 51°15.12 2°50.941 281.4 11.5 284 13.8
2008-10-22 07:19:05 51°15.124 2°50.916 281.3 11.5 285 14
2008-10-22 07:19:10 51°15.128 2°50.892 281.4 11.5 284 13.9
2008-10-22 07:19:15 51°15.132 2°50.867 281.5 11.5 286 14.3
2008-10-22 07:19:20 51°15.136 2°50.843 282.1 11.5 285 14.3
2008-10-22 07:19:25 51°15.14 2°50.818 281.9 11.5 285 14.3
2008-10-22 07:19:30 51°15.144 2°50.793 281.9 11.5 284 14
2008-10-22 07:19:35 51°15.149 2°50.769 281.4 11.5 285 14
2008-10-22 07:19:40 51°15.153 2°50.744 281.8 11.5 285 14
2008-10-22 07:19:45 51°15.157 2°50.72 281.5 11.5 285 13.9
2008-10-22 07:19:50 51°15.161 2°50.695 281.4 11.5 284 14.2
2008-10-22 07:19:55 51°15.165 2°50.67 281.4 11.5 285 14.1
2008-10-22 07:20:00 51°15.169 2°50.646 281.4 11.5 285 14.3
2008-10-22 07:20:05 51°15.173 2°50.621 281.3 11.5 284 14.1
2008-10-22 07:20:10 51°15.176 2°50.597 281.2 11.5 284 14.4
2008-10-22 07:20:15 51°15.18 2°50.572 280.6 11.5 283 14.3
2008-10-22 07:20:20 51°15.183 2°50.547 280 11.5 283 14
2008-10-22 07:20:25 51°15.188 2°50.523 279.6 11.5 285 14.1
2008-10-22 07:20:30 51°15.191 2°50.498 280.6 11.5 284 14.4
2008-10-22 07:20:35 51°15.195 2°50.473 280.8 11.5 284 14.4
2008-10-22 07:20:40 51°15.199 2°50.449 280.9 11.5 285 14.4
2008-10-22 07:20:45 51°15.203 2°50.424 281.4 11.5 284 14.5
2008-10-22 07:20:50 51°15.207 2°50.399 281.4 11.5 284 14.4
2008-10-22 07:20:55 51°15.211 2°50.375 281.2 11.5 284 14.6
2008-10-22 07:21:00 51°15.215 2°50.35 281 11.5 284 14.3
2008-10-22 07:21:05 51°15.219 2°50.325 280.9 11.5 284 14.4
2008-10-22 07:21:10 51°15.222 2°50.3 281.1 11.5 284 14.6
2008-10-22 07:21:15 51°15.226 2°50.276 280.9 11.5 284 14.5
2008-10-22 07:21:20 51°15.23 2°50.251 281 11.5 284 14.3
2008-10-22 07:21:25 51°15.234 2°50.226 281.2 11.5 284 14.5
2008-10-22 07:21:30 51°15.238 2°50.201 281 11.5 284 14.7
2008-10-22 07:21:35 51°15.241 2°50.177 280.8 11.5 284 14.7
2008-10-22 07:21:40 51°15.245 2°50.152 280.8 11.5 284 14.4
2008-10-22 07:21:45 51°15.249 2°50.127 280.7 11.5 283 14.5
2008-10-22 07:21:50 51°15.253 2°50.102 280.7 11.5 284 14.4
2008-10-22 07:21:55 51°15.257 2°50.078 280.7 11.5 284 14.5
2008-10-22 07:22:00 51°15.261 2°50.053 281 11.6 284 14.6
2008-10-22 07:22:05 51°15.264 2°50.028 280.9 11.6 284 14.6
2008-10-22 07:22:10 51°15.268 2°50.003 280.7 11.6 284 14.3
2008-10-22 07:22:15 51°15.272 2°49.978 280.6 11.6 284 14.5
2008-10-22 07:22:20 51°15.276 2°49.953 280.3 11.6 284 14.5
2008-10-22 07:22:25 51°15.28 2°49.929 281 11.6 286 14.6
2008-10-22 07:22:30 51°15.284 2°49.904 282.2 11.6 286 14.6
2008-10-22 07:22:35 51°15.289 2°49.88 282.9 11.6 287 14.6
2008-10-22 07:22:40 51°15.294 2°49.855 283.7 11.7 288 14.7
2008-10-22 07:22:45 51°15.299 2°49.83 284.7 11.7 288 14.5
2008-10-22 07:22:50 51°15.304 2°49.806 285.1 11.6 289 14.4
2008-10-22 07:22:55 51°15.309 2°49.782 285.7 11.7 288 14.3
2008-10-22 07:23:00 51°15.315 2°49.758 285.7 11.6 289 14.7
2008-10-22 07:23:05 51°15.319 2°49.733 285.9 11.5 287 14.8
2008-10-22 07:23:10 51°15.324 2°49.709 284.8 11.6 287 14.4
2008-10-22 07:23:15 51°15.329 2°49.684 284.3 11.7 287 14.4
2008-10-22 07:23:20 51°15.334 2°49.66 284.2 11.6 289 14.5
2008-10-22 07:23:25 51°15.339 2°49.635 285.2 11.6 288 14.7
2008-10-22 07:23:30 51°15.344 2°49.611 285.3 11.6 289 14.5
2008-10-22 07:23:35 51°15.349 2°49.587 285.8 11.7 288 14.6
2008-10-22 07:23:40 51°15.355 2°49.562 285.6 11.7 290 14.6
2008-10-22 07:23:45 51°15.36 2°49.538 286.1 11.6 288 14.5
2008-10-22 07:23:50 51°15.365 2°49.514 285.9 11.6 289 14.7
2008-10-22 07:23:55 51°15.37 2°49.489 286.1 11.6 289 14.8
2008-10-22 07:24:00 51°15.375 2°49.465 285.9 11.6 287 14.7
2008-10-22 07:24:05 51°15.379 2°49.44 285.1 11.6 287 14.7
2008-10-22 07:24:10 51°15.384 2°49.416 284.1 11.6 287 14.7
2008-10-22 07:24:15 51°15.389 2°49.391 284.3 11.6 286 14.8
2008-10-22 07:24:20 51°15.393 2°49.366 283.8 11.6 286 14.6
2008-10-22 07:24:25 51°15.398 2°49.342 283.3 11.6 286 14.6
2008-10-22 07:24:30 51°15.402 2°49.317 283 11.6 286 14.6
2008-10-22 07:24:35 51°15.406 2°49.293 282.5 11.6 286 14.6
2008-10-22 07:24:40 51°15.411 2°49.268 282.9 11.6 288 14.6
2008-10-22 07:24:45 51°15.416 2°49.244 283.9 11.6 288 14.7
2008-10-22 07:24:50 51°15.422 2°49.22 284.4 11.6 290 14.8
2008-10-22 07:24:55 51°15.427 2°49.195 285.6 11.6 288 14.8
2008-10-22 07:25:00 51°15.432 2°49.171 285.7 11.6 289 14.8
2008-10-22 07:25:05 51°15.437 2°49.147 285.6 11.6 289 14.6
2008-10-22 07:25:10 51°15.443 2°49.122 285.8 11.6 291 14.7
2008-10-22 07:25:15 51°15.448 2°49.098 286.4 11.6 289 14.6
2008-10-22 07:25:20 51°15.454 2°49.074 286.4 11.6 290 14.6
2008-10-22 07:25:25 51°15.459 2°49.05 286.4 11.6 290 14.4
2008-10-22 07:25:30 51°15.465 2°49.026 286.4 11.6 290 14.3
2008-10-22 07:25:35 51°15.47 2°49.002 286.2 11.6 290 14.1
2008-10-22 07:25:40 51°15.475 2°48.977 286.6 11.6 289 13.9
2008-10-22 07:25:45 51°15.481 2°48.953 285.8 11.6 289 13.8
2008-10-22 07:25:50 51°15.486 2°48.929 285.9 11.6 289 13.6
2008-10-22 07:25:55 51°15.491 2°48.905 286.1 11.6 288 13.4
2008-10-22 07:26:00 51°15.496 2°48.881 285.8 11.6 289 13.1
2008-10-22 07:26:05 51°15.501 2°48.857 286.2 11.6 289 13
2008-10-22 07:26:10 51°15.507 2°48.833 286 11.6 289 12.8
2008-10-22 07:26:15 51°15.512 2°48.808 286.2 11.6 289 12.6
2008-10-22 07:26:20 51°15.517 2°48.784 285.9 11.6 288 12.5
2008-10-22 07:26:25 51°15.522 2°48.76 285.6 11.6 288 12.4
2008-10-22 07:26:30 51°15.527 2°48.735 285.6 11.6 288 12.2
2008-10-22 07:26:35 51°15.532 2°48.711 285.2 11.6 288 12.1
2008-10-22 07:26:40 51°15.537 2°48.687 285.6 11.6 289 12.1
2008-10-22 07:26:45 51°15.542 2°48.662 286.2 11.6 288 12.2
2008-10-22 07:26:50 51°15.547 2°48.638 285.9 11.7 289 12.1
2008-10-22 07:26:55 51°15.552 2°48.614 285.9 11.6 288 12
2008-10-22 07:27:00 51°15.557 2°48.589 285.9 11.6 288 12.1
2008-10-22 07:27:05 51°15.562 2°48.565 285.7 11.6 288 12.1
2008-10-22 07:27:10 51°15.568 2°48.54 285.4 11.7 289 12.1
2008-10-22 07:27:15 51°15.573 2°48.516 285.8 11.7 288 12.1
2008-10-22 07:27:20 51°15.578 2°48.491 285.9 11.6 288 12.1
2008-10-22 07:27:25 51°15.583 2°48.467 285.7 11.7 289 12.2
2008-10-22 07:27:30 51°15.588 2°48.442 285.9 11.7 289 12.2
2008-10-22 07:27:35 51°15.593 2°48.418 286.2 11.7 289 12.2
2008-10-22 07:27:40 51°15.598 2°48.393 286 11.6 288 12.2
2008-10-22 07:27:45 51°15.604 2°48.369 286 11.7 289 12.3
2008-10-22 07:27:50 51°15.609 2°48.344 286.1 11.7 289 12.3
2008-10-22 07:27:55 51°15.614 2°48.32 286 11.7 289 12.5
2008-10-22 07:28:00 51°15.619 2°48.295 286.2 11.7 289 12.5
2008-10-22 07:28:05 51°15.624 2°48.271 286.1 11.7 288 12.6
2008-10-22 07:28:10 51°15.629 2°48.246 285.8 11.7 288 12.8
2008-10-22 07:28:15 51°15.635 2°48.222 285.9 11.7 288 12.8
2008-10-22 07:28:20 51°15.64 2°48.197 285.9 11.7 289 12.9
2008-10-22 07:28:25 51°15.645 2°48.173 285.9 11.7 288 12.8
2008-10-22 07:28:30 51°15.65 2°48.148 286 11.7 289 13
2008-10-22 07:28:35 51°15.655 2°48.124 286 11.7 289 13.2
2008-10-22 07:28:40 51°15.661 2°48.099 286.3 11.7 289 13.4
2008-10-22 07:28:45 51°15.666 2°48.075 286.6 11.6 289 13.4
2008-10-22 07:28:50 51°15.671 2°48.051 286.6 11.7 289 13.6
2008-10-22 07:28:55 51°15.676 2°48.026 286.3 11.6 288 13.7
2008-10-22 07:29:00 51°15.681 2°48.002 285.5 11.7 288 13.9
2008-10-22 07:29:05 51°15.686 2°47.977 284.8 11.6 287 14
2008-10-22 07:29:10 51°15.69 2°47.952 284.3 11.7 287 14
2008-10-22 07:29:15 51°15.695 2°47.928 283.9 11.6 286 14.1
2008-10-22 07:29:20 51°15.699 2°47.903 283.5 11.6 287 14.2
2008-10-22 07:29:25 51°15.703 2°47.878 283.3 11.6 286 14.5
2008-10-22 07:29:30 51°15.709 2°47.854 283.2 11.7 288 14.6
2008-10-22 07:29:35 51°15.713 2°47.829 284.1 11.6 287 14.8
2008-10-22 07:29:40 51°15.719 2°47.804 284.8 11.7 288 14.9
2008-10-22 07:29:45 51°15.724 2°47.78 285 11.6 290 15.2
2008-10-22 07:29:50 51°15.729 2°47.756 285.9 11.6 288 15.4
2008-10-22 07:29:55 51°15.734 2°47.732 285.7 11.7 289 15.5
2008-10-22 07:30:00 51°15.74 2°47.707 285.4 11.6 289 15.7
2008-10-22 07:30:05 51°15.745 2°47.683 285.9 11.7 290 15.8
2008-10-22 07:30:10 51°15.75 2°47.659 286 11.6 289 15.8
2008-10-22 07:30:15 51°15.756 2°47.634 286 11.6 289 16
2008-10-22 07:30:20 51°15.761 2°47.61 285.9 11.7 290 16.1
2008-10-22 07:30:25 51°15.767 2°47.586 286 11.7 290 16.1
2008-10-22 07:30:30 51°15.772 2°47.562 286.4 11.6 289 16.2
2008-10-22 07:30:35 51°15.778 2°47.538 285.9 11.6 290 16.3
2008-10-22 07:30:40 51°15.783 2°47.513 286.2 11.6 289 16.5
2008-10-22 07:30:45 51°15.788 2°47.489 285.9 11.6 290 16.5
2008-10-22 07:30:50 51°15.794 2°47.465 285.6 11.6 290 16.6
2008-10-22 07:30:55 51°15.799 2°47.441 285.9 11.5 288 16.6
2008-10-22 07:31:00 51°15.804 2°47.416 285.4 11.6 288 16.7
2008-10-22 07:31:05 51°15.809 2°47.392 284.6 11.6 288 16.8
2008-10-22 07:31:10 51°15.814 2°47.368 284.4 11.6 289 17
2008-10-22 07:31:15 51°15.819 2°47.343 284.9 11.6 288 17.1
2008-10-22 07:31:20 51°15.824 2°47.319 284.8 11.6 288 17.4
2008-10-22 07:31:25 51°15.829 2°47.295 284.9 11.6 290 17.5
2008-10-22 07:31:30 51°15.834 2°47.27 285.9 11.6 289 17.8
2008-10-22 07:31:35 51°15.84 2°47.246 285.5 11.7 289 17.8
2008-10-22 07:31:40 51°15.845 2°47.221 285.1 11.7 288 17.7
2008-10-22 07:31:45 51°15.85 2°47.197 285.1 11.6 290 17.8
2008-10-22 07:31:50 51°15.855 2°47.173 285.3 11.7 289 18
2008-10-22 07:31:55 51°15.861 2°47.149 285.9 11.6 290 18.1
2008-10-22 07:32:00 51°15.866 2°47.124 286.2 11.6 289 18.1
2008-10-22 07:32:05 51°15.872 2°47.1 285.8 11.6 290 18.1
2008-10-22 07:32:10 51°15.876 2°47.076 286 11.5 287 18.2
2008-10-22 07:32:15 51°15.881 2°47.052 285.2 11.5 289 18.3
2008-10-22 07:32:20 51°15.885 2°47.028 284.5 11.6 287 18.1
2008-10-22 07:32:25 51°15.891 2°47.004 284 11.6 288 18.1
2008-10-22 07:32:30 51°15.895 2°46.979 283.7 11.5 287 18.1
2008-10-22 07:32:35 51°15.9 2°46.955 283.3 11.5 287 18.2
2008-10-22 07:32:40 51°15.904 2°46.93 283 11.5 286 18.1
2008-10-22 07:32:45 51°15.909 2°46.906 282.4 11.5 287 18.1
2008-10-22 07:32:50 51°15.913 2°46.882 282.9 11.5 286 18.2
2008-10-22 07:32:55 51°15.918 2°46.857 282.6 11.5 287 18.1
2008-10-22 07:33:00 51°15.922 2°46.833 282.7 11.5 287 18.1
2008-10-22 07:33:05 51°15.927 2°46.809 283 11.5 288 18
2008-10-22 07:33:10 51°15.933 2°46.785 283.5 11.5 289 18
2008-10-22 07:33:15 51°15.938 2°46.76 284.7 11.5 288 17.9
2008-10-22 07:33:20 51°15.943 2°46.736 284.8 11.5 287 17.9
2008-10-22 07:33:25 51°15.948 2°46.712 284.1 11.5 288 17.7
2008-10-22 07:33:30 51°15.952 2°46.687 284.3 11.5 287 17.7
2008-10-22 07:33:35 51°15.958 2°46.663 283.8 11.5 288 17.6
2008-10-22 07:33:40 51°15.962 2°46.639 283.8 11.5 286 17.5
2008-10-22 07:33:45 51°15.967 2°46.615 283 11.5 288 17.4
2008-10-22 07:33:50 51°15.972 2°46.591 283 11.5 288 17.1
2008-10-22 07:33:55 51°15.977 2°46.566 283.8 11.4 288 17
2008-10-22 07:34:00 51°15.981 2°46.542 283.8 11.5 288 16.9
2008-10-22 07:34:05 51°15.986 2°46.518 283.8 11.5 287 16.8
2008-10-22 07:34:10 51°15.991 2°46.494 283.7 11.5 288 16.4
2008-10-22 07:34:15 51°15.996 2°46.47 283.8 11.5 288 15.9
2008-10-22 07:34:20 51°16.001 2°46.446 284 11.5 288 15.6
2008-10-22 07:34:25 51°16.006 2°46.421 284.1 11.5 288 15.5
2008-10-22 07:34:30 51°16.011 2°46.397 283.9 11.5 288 15.5
2008-10-22 07:34:35 51°16.016 2°46.373 283.7 11.5 288 15.5
2008-10-22 07:34:40 51°16.021 2°46.349 283.8 11.5 287 15.4
2008-10-22 07:34:45 51°16.026 2°46.325 283.3 11.5 288 15.3
2008-10-22 07:34:50 51°16.031 2°46.301 283.2 11.5 287 15.2
2008-10-22 07:34:55 51°16.036 2°46.277 283.4 11.5 290 15.1
2008-10-22 07:35:00 51°16.041 2°46.253 284.1 11.6 290 14.9
2008-10-22 07:35:05 51°16.048 2°46.229 285.3 11.6 293 14.8
2008-10-22 07:35:10 51°16.054 2°46.206 287.5 11.6 293 14.7
2008-10-22 07:35:15 51°16.061 2°46.182 288.8 11.6 295 14
2008-10-22 07:35:20 51°16.068 2°46.159 289.9 11.6 295 13.1
2008-10-22 07:35:25 51°16.075 2°46.136 290.4 11.6 297 13.2
2008-10-22 07:35:30 51°16.082 2°46.113 291.1 11.6 296 13.2
2008-10-22 07:35:35 51°16.089 2°46.09 291.7 11.7 296 13.2
2008-10-22 07:35:40 51°16.097 2°46.067 291.4 11.7 297 13
2008-10-22 07:35:45 51°16.105 2°46.044 292.3 11.7 299 12.8
2008-10-22 07:35:50 51°16.112 2°46.022 293.3 11.7 298 12.7
2008-10-22 07:35:55 51°16.12 2°45.999 293.6 11.7 299 12.6
2008-10-22 07:36:00 51°16.128 2°45.976 294.1 11.8 299 12.5
2008-10-22 07:36:05 51°16.136 2°45.954 294.8 11.8 300 12.3
2008-10-22 07:36:10 51°16.145 2°45.931 295.5 11.8 300 12.4
2008-10-22 07:36:15 51°16.153 2°45.909 295.8 11.8 301 12.3
2008-10-22 07:36:20 51°16.161 2°45.886 295.8 11.8 300 12.3
2008-10-22 07:36:25 51°16.17 2°45.864 296 11.8 301 12.4
2008-10-22 07:36:30 51°16.178 2°45.842 296 11.8 302 12.3
2008-10-22 07:36:35 51°16.187 2°45.819 297.1 11.8 301 12.2
2008-10-22 07:36:40 51°16.196 2°45.797 296.8 11.8 302 12.2
2008-10-22 07:36:45 51°16.204 2°45.774 297.7 11.8 301 12.2
2008-10-22 07:36:50 51°16.213 2°45.752 297.1 11.9 302 12.1
2008-10-22 07:36:55 51°16.221 2°45.729 297 11.9 301 12.2
2008-10-22 07:37:00 51°16.23 2°45.707 297.4 11.9 302 12.1
2008-10-22 07:37:05 51°16.239 2°45.685 297.5 11.9 303 12.1
2008-10-22 07:37:10 51°16.248 2°45.662 297.7 11.9 301 12
2008-10-22 07:37:15 51°16.257 2°45.64 297.3 11.9 302 12
2008-10-22 07:37:20 51°16.265 2°45.618 297.6 11.9 301 11.8
2008-10-22 07:37:25 51°16.274 2°45.595 297.4 11.9 302 11.8
2008-10-22 07:37:30 51°16.282 2°45.573 297.6 11.9 301 12
2008-10-22 07:37:35 51°16.291 2°45.55 297.2 11.9 302 12
2008-10-22 07:37:40 51°16.299 2°45.528 297.6 11.9 301 11.9
2008-10-22 07:37:45 51°16.308 2°45.505 297.2 11.9 301 12
2008-10-22 07:37:50 51°16.316 2°45.482 296.8 12 301 12.3
2008-10-22 07:37:55 51°16.325 2°45.46 296.7 11.9 301 12.3
2008-10-22 07:38:00 51°16.333 2°45.437 297 12 301 12.1
2008-10-22 07:38:05 51°16.342 2°45.414 296.8 12 301 12.2
2008-10-22 07:38:10 51°16.35 2°45.392 296.4 11.9 301 12.3
2008-10-22 07:38:15 51°16.359 2°45.369 296.8 11.9 302 12.3
2008-10-22 07:38:20 51°16.367 2°45.347 297.2 12 300 12.3
2008-10-22 07:38:25 51°16.375 2°45.324 296.5 11.9 299 12.4
2008-10-22 07:38:30 51°16.383 2°45.301 295.7 11.9 299 12.5
2008-10-22 07:38:35 51°16.391 2°45.277 295.3 11.9 298 12.4
2008-10-22 07:38:40 51°16.4 2°45.255 294.7 11.9 300 12.2
2008-10-22 07:38:45 51°16.408 2°45.232 294.6 11.9 300 12.3
2008-10-22 07:38:50 51°16.416 2°45.209 295.7 11.9 300 12.4
2008-10-22 07:38:55 51°16.425 2°45.186 295.8 11.9 300 12.8
2008-10-22 07:39:00 51°16.434 2°45.164 296.5 12 303 12.7
2008-10-22 07:39:05 51°16.442 2°45.142 297.9 11.9 302 12.9
2008-10-22 07:39:10 51°16.452 2°45.12 298.2 12 305 13
2008-10-22 07:39:15 51°16.461 2°45.098 298.9 12 303 13
2008-10-22 07:39:20 51°16.47 2°45.076 299.5 12 304 12.9
2008-10-22 07:39:25 51°16.479 2°45.054 299.4 11.9 303 13
2008-10-22 07:39:30 51°16.488 2°45.032 299.1 11.9 304 13.1
2008-10-22 07:39:35 51°16.498 2°45.01 299.4 12 304 12.9
2008-10-22 07:39:40 51°16.507 2°44.988 299.9 12 304 12.9
2008-10-22 07:39:45 51°16.516 2°44.966 299.9 12 303 12.9
2008-10-22 07:39:50 51°16.525 2°44.943 299.5 12 302 12.8
2008-10-22 07:39:55 51°16.534 2°44.921 298.9 12 304 12.7
2008-10-22 07:40:00 51°16.543 2°44.9 299.4 11.9 304 12.4
2008-10-22 07:40:05 51°16.552 2°44.878 299.8 11.9 303 12.4
2008-10-22 07:40:10 51°16.561 2°44.856 299.4 11.9 303 12.7
2008-10-22 07:40:15 51°16.57 2°44.834 299.2 11.9 303 12.9
2008-10-22 07:40:20 51°16.579 2°44.812 299.1 11.9 304 13.2
2008-10-22 07:40:25 51°16.588 2°44.79 299.7 11.9 303 13.2
2008-10-22 07:40:30 51°16.598 2°44.768 299.7 11.9 303 13.2
2008-10-22 07:40:35 51°16.607 2°44.746 299.4 11.9 303 13
2008-10-22 07:40:40 51°16.616 2°44.724 299.4 11.9 304 13
2008-10-22 07:40:45 51°16.625 2°44.702 299.5 11.9 303 13.3
2008-10-22 07:40:50 51°16.634 2°44.68 299.4 11.9 304 13.6
2008-10-22 07:40:55 51°16.643 2°44.658 299.7 12 303 13.6
2008-10-22 07:41:00 51°16.652 2°44.636 299.4 11.9 304 13.6
2008-10-22 07:41:05 51°16.661 2°44.613 299.7 11.9 303 13.8
2008-10-22 07:41:10 51°16.67 2°44.591 299.2 11.9 303 13.9
2008-10-22 07:41:15 51°16.679 2°44.569 299 12 302 13.8
2008-10-22 07:41:20 51°16.688 2°44.547 298.8 11.9 304 13.6
2008-10-22 07:41:25 51°16.697 2°44.525 299 11.8 302 14.4
2008-10-22 07:41:30 51°16.706 2°44.503 298.8 11.9 303 14.7
2008-10-22 07:41:35 51°16.715 2°44.48 298.9 11.9 302 15
2008-10-22 07:41:40 51°16.723 2°44.458 298.4 11.9 301 15.2
2008-10-22 07:41:45 51°16.732 2°44.435 297.7 11.9 301 15.1
2008-10-22 07:41:50 51°16.74 2°44.412 297.1 11.9 301 15.7
2008-10-22 07:41:55 51°16.749 2°44.39 296.7 11.9 301 15.8
2008-10-22 07:42:00 51°16.758 2°44.368 296.9 11.9 302 15.9
2008-10-22 07:42:05 51°16.766 2°44.346 297.8 11.9 302 16.1
2008-10-22 07:42:10 51°16.775 2°44.323 298.2 11.9 302 16.1
2008-10-22 07:42:15 51°16.784 2°44.301 298.2 12 303 16.2
2008-10-22 07:42:20 51°16.793 2°44.279 298.3 11.9 303 16.2
2008-10-22 07:42:25 51°16.802 2°44.257 299 11.9 304 16.2
2008-10-22 07:42:30 51°16.812 2°44.235 299.5 11.9 304 16.3
2008-10-22 07:42:35 51°16.821 2°44.213 299.7 11.9 305 16.4
2008-10-22 07:42:40 51°16.831 2°44.192 300.5 12 306 16.5
2008-10-22 07:42:45 51°16.841 2°44.17 301.4 12 306 16.5
2008-10-22 07:42:50 51°16.851 2°44.149 301.5 12 307 16.6
2008-10-22 07:42:55 51°16.86 2°44.128 302.2 12 306 16.5
2008-10-22 07:43:00 51°16.87 2°44.106 302.3 12 307 16.6
2008-10-22 07:43:05 51°16.88 2°44.085 302.5 12 306 16.5
2008-10-22 07:43:10 51°16.89 2°44.064 302.5 12 307 16.6
2008-10-22 07:43:15 51°16.9 2°44.042 302.8 12 306 16.8
2008-10-22 07:43:20 51°16.91 2°44.021 302.6 12 307 16.8
2008-10-22 07:43:25 51°16.92 2°44 302.6 12 307 16.8
2008-10-22 07:43:30 51°16.929 2°43.978 302.8 12 306 16.9
2008-10-22 07:43:34 51°16.937 2°43.961 302.7 12 306 16.7
2008-10-22 07:43:40 51°16.949 2°43.935 302.5 12 306 16.3
2008-10-22 07:43:45 51°16.959 2°43.914 302.5 12 306 16.3
2008-10-22 07:43:49 51°16.966 2°43.896 302.3 12 305 16.4
2008-10-22 07:43:54 51°16.975 2°43.875 301.3 11.9 304 16.5
2008-10-22 07:43:59 51°16.984 2°43.853 300.4 11.9 303 16.7
2008-10-22 07:44:04 51°16.994 2°43.831 300.1 11.9 303 16.6
2008-10-22 07:44:09 51°17.003 2°43.809 299.8 11.9 303 16.4
2008-10-22 07:44:13 51°17.01 2°43.791 299.6 11.9 302 16.3
2008-10-22 07:44:18 51°17.019 2°43.769 298.9 11.8 304 16.2
2008-10-22 07:44:23 51°17.028 2°43.747 299.3 11.9 304 16.2
2008-10-22 07:44:28 51°17.037 2°43.725 299.7 11.9 303 16.2
2008-10-22 07:44:33 51°17.046 2°43.703 299.6 11.9 304 16
2008-10-22 07:44:38 51°17.055 2°43.681 299.7 11.9 303 16
2008-10-22 07:44:42 51°17.062 2°43.663 299.3 11.9 303 16
2008-10-22 07:44:47 51°17.071 2°43.641 299.3 11.9 302 16
2008-10-22 07:44:52 51°17.08 2°43.619 299.6 11.9 304 16.1
2008-10-22 07:44:57 51°17.089 2°43.597 299.7 11.9 303 16.4
2008-10-22 07:45:02 51°17.098 2°43.575 299.7 11.9 303 16.2
2008-10-22 07:45:07 51°17.108 2°43.553 299.7 11.9 304 16.1
2008-10-22 07:45:12 51°17.117 2°43.531 299.9 11.9 304 16.1
2008-10-22 07:45:17 51°17.126 2°43.509 300.1 11.9 304 16.4
2008-10-22 07:45:21 51°17.133 2°43.492 300 12 304 16.5
2008-10-22 07:45:26 51°17.142 2°43.47 300.3 11.9 304 15.9
2008-10-22 07:45:31 51°17.151 2°43.448 300.4 11.9 304 16.2
2008-10-22 07:45:37 51°17.162 2°43.422 300.2 11.9 303 16
2008-10-22 07:45:41 51°17.169 2°43.404 300.1 11.9 304 16
2008-10-22 07:45:46 51°17.179 2°43.383 301.1 11.9 305 15.4
2008-10-22 07:45:51 51°17.188 2°43.361 300.8 11.9 304 15.2
2008-10-22 07:45:56 51°17.197 2°43.339 300.8 11.9 304 14.5
2008-10-22 07:46:01 51°17.206 2°43.317 300.5 11.9 303 14.1
2008-10-22 07:46:06 51°17.216 2°43.296 300.4 11.9 304 13.4
2008-10-22 07:46:11 51°17.225 2°43.274 300.8 11.8 305 12.7
2008-10-22 07:46:16 51°17.234 2°43.253 300.1 11.8 304 12.9
2008-10-22 07:46:21 51°17.243 2°43.231 300.9 11.7 305 13.8
2008-10-22 07:46:26 51°17.253 2°43.21 301.1 11.7 305 13.8
2008-10-22 07:46:31 51°17.262 2°43.189 301.5 11.8 305 13.1
2008-10-22 07:46:36 51°17.271 2°43.167 300.9 11.8 305 11.5
2008-10-22 07:46:41 51°17.28 2°43.146 301.1 11.8 305 12.9
2008-10-22 07:46:46 51°17.29 2°43.125 301.1 11.8 305 13.6
2008-10-22 07:46:51 51°17.299 2°43.103 300.9 11.8 305 13.6
2008-10-22 07:46:56 51°17.309 2°43.082 301.5 11.9 306 13.3
2008-10-22 07:47:01 51°17.319 2°43.062 302.7 11.9 307 12.8
2008-10-22 07:47:06 51°17.329 2°43.041 302.6 11.9 307 12
2008-10-22 07:47:12 51°17.341 2°43.015 303.1 11.8 307 11.5
2008-10-22 07:47:17 51°17.351 2°42.995 303.3 11.8 308 11
2008-10-22 07:47:21 51°17.359 2°42.978 303.6 11.8 307 11.2
2008-10-22 07:47:26 51°17.369 2°42.957 303.5 11.8 307 11.6
2008-10-22 07:47:31 51°17.378 2°42.936 303.5 11.8 306 11.4
2008-10-22 07:47:37 51°17.39 2°42.911 302.5 11.8 306 11.5
2008-10-22 07:47:41 51°17.397 2°42.893 301.7 11.8 304 11
2008-10-22 07:47:46 51°17.407 2°42.872 301.3 11.8 307 10.5
2008-10-22 07:47:51 51°17.416 2°42.851 301.7 11.8 306 12.3
2008-10-22 07:47:57 51°17.428 2°42.826 302.3 11.8 307 13.2
2008-10-22 07:48:01 51°17.436 2°42.809 302.6 11.9 307 13.5
2008-10-22 07:48:06 51°17.446 2°42.788 302.6 11.9 306 14
2008-10-22 07:48:11 51°17.456 2°42.767 302.5 11.9 307 14.2
2008-10-22 07:48:16 51°17.466 2°42.745 302.3 11.9 306 14.6
2008-10-22 07:48:21 51°17.475 2°42.724 301.6 11.9 306 15.5
2008-10-22 07:48:26 51°17.485 2°42.703 301.1 11.9 306 16.6
2008-10-22 07:48:31 51°17.495 2°42.681 300.8 11.9 305 18.4
2008-10-22 07:48:36 51°17.504 2°42.66 300.4 11.9 305 20.4
2008-10-22 07:48:41 51°17.514 2°42.638 300.3 12 305 21.7
2008-10-22 07:48:45 51°17.521 2°42.621 300.7 11.9 306 22.1
2008-10-22 07:48:51 51°17.534 2°42.596 301.5 12 307 22.5
2008-10-22 07:48:56 51°17.544 2°42.575 301.7 12 308 22.7
2008-10-22 07:49:01 51°17.554 2°42.554 302.2 12.1 308 23.1
2008-10-22 07:49:06 51°17.564 2°42.533 302.6 12 308 23.3
2008-10-22 07:49:11 51°17.575 2°42.512 302.8 12 309 23.5
2008-10-22 07:49:17 51°17.587 2°42.487 302.6 12 308 23.7
2008-10-22 07:49:21 51°17.595 2°42.47 302.7 12 308 23.9
2008-10-22 07:49:26 51°17.605 2°42.449 302.7 12 307 24.3
2008-10-22 07:49:31 51°17.615 2°42.427 302.3 12 307 24.1
2008-10-22 07:49:36 51°17.625 2°42.406 302.6 12 308 24.3
2008-10-22 07:49:41 51°17.635 2°42.385 302.7 12 307 24.3
2008-10-22 07:49:46 51°17.645 2°42.364 302.6 12 308 24.4
2008-10-22 07:49:51 51°17.655 2°42.343 302.4 12 308 24.6
2008-10-22 07:49:57 51°17.668 2°42.318 302.6 12 308 24.6
2008-10-22 07:50:01 51°17.676 2°42.302 303.2 12 308 24.7
2008-10-22 07:50:06 51°17.686 2°42.28 302.9 11.9 306 24.8
2008-10-22 07:50:11 51°17.696 2°42.259 301.8 12 307 24.9
2008-10-22 07:50:17 51°17.707 2°42.233 301.3 12 306 25
2008-10-22 07:50:21 51°17.715 2°42.216 301 11.9 306 25
2008-10-22 07:50:26 51°17.724 2°42.194 300.7 11.9 305 25
2008-10-22 07:50:31 51°17.734 2°42.173 300.3 11.9 306 25.1
2008-10-22 07:50:36 51°17.743 2°42.151 300 11.9 304 25.3
2008-10-22 07:50:41 51°17.753 2°42.129 299.4 11.9 304 25.1
2008-10-22 07:50:46 51°17.762 2°42.107 299 12 304 25.3
2008-10-22 07:50:51 51°17.771 2°42.085 298.4 11.9 303 24.9
2008-10-22 07:50:56 51°17.78 2°42.063 298.2 11.9 304 25.3
2008-10-22 07:51:01 51°17.789 2°42.042 299.2 11.8 305 25.1
2008-10-22 07:51:06 51°17.799 2°42.02 298.9 11.9 305 25.2
2008-10-22 07:51:11 51°17.808 2°41.999 299.3 11.9 305 25.2
2008-10-22 07:51:16 51°17.817 2°41.977 299.4 11.9 305 25.3
2008-10-22 07:51:21 51°17.827 2°41.955 299.6 11.9 305 25.2
2008-10-22 07:51:26 51°17.836 2°41.933 299.7 11.9 305 25.3
2008-10-22 07:51:31 51°17.846 2°41.912 299.6 11.9 305 25.3
2008-10-22 07:51:37 51°17.857 2°41.886 300.3 11.9 306 25.4
2008-10-22 07:51:41 51°17.865 2°41.868 300.4 11.9 304 25.2
2008-10-22 07:51:47 51°17.876 2°41.843 300.3 11.9 305 25.3
2008-10-22 07:51:51 51°17.884 2°41.825 300 11.9 305 25.2
2008-10-22 07:51:56 51°17.893 2°41.804 299.9 11.9 305 25
2008-10-22 07:52:01 51°17.902 2°41.782 299.7 11.8 305 25.1
2008-10-22 07:52:06 51°17.911 2°41.76 299.7 11.9 304 25.1
2008-10-22 07:52:11 51°17.92 2°41.738 299.6 11.9 303 25
2008-10-22 07:52:17 51°17.932 2°41.712 299.5 11.9 305 24.8
2008-10-22 07:52:21 51°17.939 2°41.695 299.7 11.8 304 24.9
2008-10-22 07:52:26 51°17.948 2°41.673 299.7 11.8 304 24.7
2008-10-22 07:52:31 51°17.957 2°41.652 299.7 11.9 304 24.7
2008-10-22 07:52:37 51°17.967 2°41.625 299 11.8 302 24.7
2008-10-22 07:52:41 51°17.974 2°41.607 298 11.8 301 24.3
2008-10-22 07:52:46 51°17.983 2°41.585 297.5 11.8 302 24.5
2008-10-22 07:52:51 51°17.991 2°41.563 297.7 11.9 302 24.5
2008-10-22 07:52:57 51°18.002 2°41.536 297.7 11.9 303 24.2
2008-10-22 07:53:01 51°18.009 2°41.518 298.3 11.9 302 24.1
2008-10-22 07:53:05 51°18.016 2°41.501 298.9 11.9 303 23.5
2008-10-22 07:53:11 51°18.027 2°41.475 298.9 11.9 303 23.3
2008-10-22 07:53:16 51°18.036 2°41.453 299.1 11.9 303 23.7
2008-10-22 07:53:21 51°18.046 2°41.431 299.5 11.9 303 23.7
2008-10-22 07:53:26 51°18.055 2°41.409 299.8 11.9 303 23.8
2008-10-22 07:53:31 51°18.064 2°41.387 300.2 11.9 304 23.5
2008-10-22 07:53:37 51°18.075 2°41.361 299.7 11.9 303 23.5
2008-10-22 07:53:41 51°18.082 2°41.343 299.8 11.9 304 23.1
2008-10-22 07:53:46 51°18.09 2°41.321 298.9 11.9 301 22.7
2008-10-22 07:53:51 51°18.099 2°41.298 298.6 11.9 303 22.1
2008-10-22 07:53:56 51°18.108 2°41.276 299 11.9 303 21.1
2008-10-22 07:54:01 51°18.117 2°41.255 299.4 11.9 304 20.7
2008-10-22 07:54:06 51°18.126 2°41.233 299.9 11.9 304 22
2008-10-22 07:54:11 51°18.135 2°41.211 300.1 11.8 304 21.9
2008-10-22 07:54:17 51°18.146 2°41.185 300 11.8 304 21.4
2008-10-22 07:54:21 51°18.153 2°41.168 299.9 11.8 303 21.4
2008-10-22 07:54:26 51°18.163 2°41.146 300.1 11.8 304 21.1
2008-10-22 07:54:31 51°18.172 2°41.124 299.7 11.8 303 21.4
2008-10-22 07:54:36 51°18.181 2°41.103 299.8 11.8 305 20.3
2008-10-22 07:54:41 51°18.19 2°41.081 300.2 11.8 303 20.2
2008-10-22 07:54:46 51°18.199 2°41.06 299.9 11.8 304 18.8
2008-10-22 07:54:51 51°18.208 2°41.038 299.9 11.7 304 18.9
2008-10-22 07:54:57 51°18.219 2°41.012 300 11.7 304 19.6
2008-10-22 07:55:01 51°18.226 2°40.994 299.6 11.7 303 19.9
2008-10-22 07:55:05 51°18.232 2°40.977 298.9 11.7 303 19.8
2008-10-22 07:55:11 51°18.243 2°40.951 299.7 11.8 303 16.7
2008-10-22 07:55:16 51°18.252 2°40.929 299.2 11.8 304 18.2
2008-10-22 07:55:21 51°18.261 2°40.908 299.7 11.7 304 18.5
2008-10-22 07:55:26 51°18.27 2°40.886 300.1 11.7 304 18.4
2008-10-22 07:55:31 51°18.279 2°40.865 299.7 11.7 304 16.6
2008-10-22 07:55:36 51°18.288 2°40.843 299.7 11.7 304 13.2
2008-10-22 07:55:41 51°18.297 2°40.822 300.1 11.6 304 15.4
2008-10-22 07:55:46 51°18.306 2°40.8 299.7 11.7 303 17
2008-10-22 07:55:51 51°18.315 2°40.778 299.1 11.7 302 18.3
2008-10-22 07:55:56 51°18.324 2°40.757 298.8 11.7 303 19.6
2008-10-22 07:56:01 51°18.333 2°40.735 299 11.7 303 20.7
2008-10-22 07:56:06 51°18.342 2°40.713 299 11.8 303 21.7
2008-10-22 07:56:11 51°18.351 2°40.691 299.5 11.8 304 21.6
2008-10-22 07:56:16 51°18.36 2°40.67 299.5 11.8 303 21
2008-10-22 07:56:21 51°18.369 2°40.648 299.7 11.7 304 15.4
2008-10-22 07:56:26 51°18.378 2°40.627 299.9 11.7 305 15.6
2008-10-22 07:56:31 51°18.387 2°40.605 300.4 11.7 304 16.9
2008-10-22 07:56:36 51°18.396 2°40.584 300.1 11.7 304 18.1
2008-10-22 07:56:41 51°18.405 2°40.562 299.8 11.7 303 18.7
2008-10-22 07:56:46 51°18.414 2°40.541 300.1 11.8 305 17.7
2008-10-22 07:56:51 51°18.423 2°40.519 300.2 11.7 303 16.2
2008-10-22 07:56:57 51°18.434 2°40.494 299.6 11.7 304 15.5
2008-10-22 07:57:01 51°18.441 2°40.477 299.9 11.7 304 16.4
2008-10-22 07:57:06 51°18.45 2°40.455 299.7 11.7 303 17.2
2008-10-22 07:57:11 51°18.459 2°40.434 299.6 11.7 305 17.4
2008-10-22 07:57:17 51°18.47 2°40.408 300 11.7 305 17.1
2008-10-22 07:57:21 51°18.478 2°40.391 299.9 11.7 304 16
2008-10-22 07:57:25 51°18.485 2°40.374 299.7 11.7 305 12.2
2008-10-22 07:57:31 51°18.496 2°40.349 300 11.5 305 12.6
2008-10-22 07:57:36 51°18.505 2°40.328 300.2 11.5 304 16.2
2008-10-22 07:57:41 51°18.514 2°40.307 299.8 11.7 304 19.5
2008-10-22 07:57:46 51°18.524 2°40.286 300 11.8 305 21
2008-10-22 07:57:51 51°18.533 2°40.264 299.6 11.7 304 22.1
2008-10-22 07:57:56 51°18.542 2°40.243 300.1 11.8 305 23.3
2008-10-22 07:58:01 51°18.551 2°40.221 299.6 11.8 304 24.1
2008-10-22 07:58:06 51°18.561 2°40.2 299.8 11.9 305 24.7
2008-10-22 07:58:11 51°18.57 2°40.178 299.7 11.8 304 24.6
2008-10-22 07:58:16 51°18.579 2°40.157 299.3 11.7 305 24.6
2008-10-22 07:58:21 51°18.588 2°40.135 299.7 11.8 305 24.7
2008-10-22 07:58:26 51°18.597 2°40.113 299.7 11.7 304 24.8
2008-10-22 07:58:31 51°18.607 2°40.092 299.3 11.8 305 25
2008-10-22 07:58:37 51°18.617 2°40.065 299.3 11.8 304 25.3
2008-10-22 07:58:41 51°18.625 2°40.048 298.8 11.8 305 25.6
2008-10-22 07:58:46 51°18.634 2°40.027 299.2 11.8 304 25.8
2008-10-22 07:58:51 51°18.643 2°40.005 298.7 11.9 304 25.9
2008-10-22 07:58:56 51°18.652 2°39.983 298.6 11.8 303 25.3
2008-10-22 07:59:01 51°18.661 2°39.961 298.9 11.9 305 25.7
2008-10-22 07:59:06 51°18.67 2°39.939 298.9 11.9 303 25.9
2008-10-22 07:59:12 51°18.682 2°39.913 298.9 11.9 304 25.7
2008-10-22 07:59:17 51°18.691 2°39.891 299.7 11.9 304 26
2008-10-22 07:59:21 51°18.698 2°39.874 299.8 11.9 304 25.4
2008-10-22 07:59:26 51°18.708 2°39.853 299.8 11.8 305 25.6
2008-10-22 07:59:31 51°18.717 2°39.831 300.4 11.9 305 25
2008-10-22 07:59:36 51°18.727 2°39.81 300.3 11.9 305 25.1
2008-10-22 07:59:41 51°18.736 2°39.789 300 11.9 305 25.2
2008-10-22 07:59:46 51°18.745 2°39.767 299.3 11.9 304 25.3
2008-10-22 07:59:51 51°18.755 2°39.745 299.9 11.9 305 25.4
2008-10-22 07:59:56 51°18.764 2°39.723 299.7 11.9 305 25.3
2008-10-22 08:00:01 51°18.774 2°39.702 300.2 11.9 305 25.3
2008-10-22 08:00:06 51°18.783 2°39.68 299 11.9 303 25.6
2008-10-22 08:00:11 51°18.792 2°39.658 299.3 11.9 305 25.5
2008-10-22 08:00:16 51°18.802 2°39.636 299.5 11.9 304 25.6
2008-10-22 08:00:21 51°18.811 2°39.614 299.4 11.9 304 25.6
2008-10-22 08:00:26 51°18.82 2°39.593 299.4 11.9 305 25.8
2008-10-22 08:00:31 51°18.829 2°39.57 298.5 11.8 303 25.7
2008-10-22 08:00:37 51°18.84 2°39.544 298.2 11.9 304 25.7
2008-10-22 08:00:41 51°18.847 2°39.526 297.8 11.9 303 25.8
2008-10-22 08:00:45 51°18.854 2°39.509 298 11.9 304 25.8
2008-10-22 08:00:51 51°18.866 2°39.482 298.6 11.9 304 25.9
2008-10-22 08:00:56 51°18.874 2°39.46 297.6 11.9 303 25.9
2008-10-22 08:01:01 51°18.883 2°39.438 297.5 11.9 303 26
2008-10-22 08:01:06 51°18.892 2°39.415 297.2 12 301 26.2
2008-10-22 08:01:12 51°18.903 2°39.389 297.5 12 303 26.2
2008-10-22 08:01:17 51°18.912 2°39.367 297.9 12 304 26.4
2008-10-22 08:01:21 51°18.92 2°39.35 298.7 12 303 26.7
2008-10-22 08:01:26 51°18.929 2°39.327 298.2 12 303 26.9
2008-10-22 08:01:31 51°18.938 2°39.305 297.6 11.9 303 27
2008-10-22 08:01:37 51°18.948 2°39.278 297.3 11.9 302 27.1
2008-10-22 08:01:41 51°18.955 2°39.26 297 11.9 302 27.2
2008-10-22 08:01:46 51°18.964 2°39.238 297.1 11.9 303 27.4
2008-10-22 08:01:51 51°18.974 2°39.216 297.7 12 304 27.7
2008-10-22 08:01:56 51°18.983 2°39.195 298.6 12 304 27.9
2008-10-22 08:02:01 51°18.993 2°39.173 299.4 12 305 28
2008-10-22 08:02:05 51°19 2°39.155 299.4 12 304 28.1
2008-10-22 08:02:11 51°19.011 2°39.129 299.6 12 305 28.2
2008-10-22 08:02:16 51°19.021 2°39.107 300 11.9 305 28.3
2008-10-22 08:02:21 51°19.03 2°39.085 300.3 12 305 28.6
2008-10-22 08:02:26 51°19.04 2°39.063 299.8 12 304 28.7
2008-10-22 08:02:31 51°19.049 2°39.041 300.3 12 305 28.8
2008-10-22 08:02:37 51°19.061 2°39.015 299.8 12 305 28.9
2008-10-22 08:02:41 51°19.068 2°38.998 300.4 12 304 28.9
2008-10-22 08:02:47 51°19.079 2°38.971 299.7 12 304 28.8
2008-10-22 08:02:51 51°19.087 2°38.954 299.6 12 304 29.1
2008-10-22 08:02:56 51°19.096 2°38.932 299.6 12 304 29.2
2008-10-22 08:03:01 51°19.106 2°38.91 299.9 11.9 304 29.1
2008-10-22 08:03:06 51°19.115 2°38.888 299.7 11.9 305 29.3
2008-10-22 08:03:12 51°19.126 2°38.862 299.8 11.9 304 29
2008-10-22 08:03:17 51°19.136 2°38.84 300 12 305 28.9
2008-10-22 08:03:21 51°19.143 2°38.822 300 11.9 304 28.7
2008-10-22 08:03:26 51°19.152 2°38.8 299.8 11.9 304 28.7
2008-10-22 08:03:31 51°19.161 2°38.778 299.7 11.9 304 28.8
2008-10-22 08:03:36 51°19.17 2°38.756 299.3 11.9 303 28.7
2008-10-22 08:03:41 51°19.18 2°38.734 299.5 11.9 304 28.7
2008-10-22 08:03:46 51°19.189 2°38.712 299.7 11.9 304 28.7
2008-10-22 08:03:51 51°19.198 2°38.69 299.8 12 304 28.8
2008-10-22 08:03:57 51°19.209 2°38.664 300 11.9 304 28.8
2008-10-22 08:04:01 51°19.217 2°38.646 300.1 11.9 304 28.5
2008-10-22 08:04:05 51°19.224 2°38.629 300 11.9 304 28.5
2008-10-22 08:04:11 51°19.235 2°38.602 299.6 11.9 303 28.1
2008-10-22 08:04:16 51°19.244 2°38.58 299.9 12 304 28.1
2008-10-22 08:04:21 51°19.253 2°38.558 300 12 303 27.9
2008-10-22 08:04:26 51°19.262 2°38.536 300.1 11.9 304 27.6
2008-10-22 08:04:31 51°19.271 2°38.514 300.1 11.9 303 27
2008-10-22 08:04:36 51°19.281 2°38.492 299.8 11.9 304 27.3
2008-10-22 08:04:41 51°19.289 2°38.47 299.5 11.9 302 26.9
2008-10-22 08:04:47 51°19.3 2°38.443 298.9 11.9 303 26.6
2008-10-22 08:04:51 51°19.307 2°38.425 299.1 12 302 26.4
2008-10-22 08:04:56 51°19.317 2°38.404 299.7 11.9 305 25.9
2008-10-22 08:05:01 51°19.325 2°38.382 300.1 11.9 303 26
2008-10-22 08:05:06 51°19.335 2°38.36 300.1 11.9 304 25.5
2008-10-22 08:05:12 51°19.345 2°38.333 300 11.9 303 25.3
2008-10-22 08:05:17 51°19.354 2°38.311 300 11.9 303 25.4
2008-10-22 08:05:21 51°19.361 2°38.293 299.5 11.9 303 24.9
2008-10-22 08:05:26 51°19.371 2°38.271 299.4 11.9 303 23.3
2008-10-22 08:05:31 51°19.379 2°38.25 299.7 11.9 303 23.2
2008-10-22 08:05:36 51°19.388 2°38.228 299.9 11.8 303 24.2
2008-10-22 08:05:41 51°19.397 2°38.205 299.3 11.9 302 24.2
2008-10-22 08:05:46 51°19.407 2°38.183 299.8 11.9 304 23.7
2008-10-22 08:05:51 51°19.416 2°38.162 300.1 11.9 304 23.1
2008-10-22 08:05:57 51°19.427 2°38.135 300.8 11.9 305 23
2008-10-22 08:06:01 51°19.434 2°38.118 300.9 11.9 305 23.8
2008-10-22 08:06:05 51°19.442 2°38.101 301.7 11.9 305 23.6
2008-10-22 08:06:11 51°19.453 2°38.075 301.4 11.9 305 23.5
2008-10-22 08:06:17 51°19.465 2°38.049 301.7 11.9 306 22.9
2008-10-22 08:06:21 51°19.472 2°38.031 301.3 11.9 304 21.2
2008-10-22 08:06:26 51°19.482 2°38.01 300.9 11.9 305 22.7
2008-10-22 08:06:31 51°19.491 2°37.988 300.8 11.9 305 22.6
2008-10-22 08:06:37 51°19.502 2°37.962 301.2 11.9 305 22.4
2008-10-22 08:06:41 51°19.51 2°37.944 301.5 11.9 304 23
2008-10-22 08:06:45 51°19.517 2°37.927 301.5 11.9 306 23
2008-10-22 08:06:51 51°19.529 2°37.901 301.8 11.9 305 23
2008-10-22 08:06:56 51°19.538 2°37.879 301 11.9 304 23.1
2008-10-22 08:07:01 51°19.547 2°37.858 300.5 11.9 305 23.1
2008-10-22 08:07:06 51°19.557 2°37.837 301.7 11.9 305 22.7
2008-10-22 08:07:11 51°19.567 2°37.815 302.1 11.9 306 22.2
2008-10-22 08:07:17 51°19.578 2°37.789 301.9 11.9 305 20.2
2008-10-22 08:07:21 51°19.586 2°37.772 301.3 11.9 305 20.9
2008-10-22 08:07:27 51°19.597 2°37.746 301.5 11.9 306 22.3
2008-10-22 08:07:31 51°19.605 2°37.729 301.2 11.9 305 22.7
2008-10-22 08:07:36 51°19.614 2°37.708 301.5 11.9 306 22.9
2008-10-22 08:07:41 51°19.625 2°37.687 302.2 11.9 307 22.8
2008-10-22 08:07:46 51°19.634 2°37.666 302.4 11.9 307 20.3
2008-10-22 08:07:52 51°19.646 2°37.64 302.5 11.8 306 22
2008-10-22 08:07:57 51°19.655 2°37.619 301.8 11.8 305 22.9
2008-10-22 08:08:01 51°19.663 2°37.601 301.8 11.9 306 23.2
2008-10-22 08:08:05 51°19.67 2°37.584 301.7 12 306 23.1
2008-10-22 08:08:12 51°19.684 2°37.554 302.6 11.9 308 22.5
2008-10-22 08:08:17 51°19.694 2°37.533 303 11.9 307 22.2
2008-10-22 08:08:21 51°19.702 2°37.517 302.9 12 308 22.3
2008-10-22 08:08:26 51°19.713 2°37.496 303.9 12 308 22.7
2008-10-22 08:08:31 51°19.723 2°37.475 303.7 12 307 23.2
2008-10-22 08:08:37 51°19.734 2°37.449 303.3 11.9 307 22.4
2008-10-22 08:08:41 51°19.742 2°37.432 302.6 11.9 306 21.6
2008-10-22 08:08:46 51°19.751 2°37.411 301.4 11.8 305 22.7
2008-10-22 08:08:51 51°19.762 2°37.39 302.6 11.9 308 23
2008-10-22 08:08:56 51°19.771 2°37.369 303.4 11.8 306 23.2
2008-10-22 08:09:01 51°19.781 2°37.349 303.3 11.7 307 23.3
2008-10-22 08:09:06 51°19.791 2°37.328 303 11.4 307 23.3
2008-10-22 08:09:11 51°19.8 2°37.309 303.6 11.2 310 23.4
2008-10-22 08:09:16 51°19.809 2°37.29 304.1 10.9 307 23.2
2008-10-22 08:09:21 51°19.819 2°37.271 303.9 10.8 310 23.3
2008-10-22 08:09:27 51°19.83 2°37.249 304.2 10.7 308 23.3
2008-10-22 08:09:31 51°19.837 2°37.235 304.2 10.6 309 22.9
2008-10-22 08:09:36 51°19.847 2°37.216 304.1 10.5 309 21.8
2008-10-22 08:09:41 51°19.856 2°37.199 304.8 10.5 311 22.2
2008-10-22 08:09:46 51°19.866 2°37.181 305.6 10.5 311 22.5
2008-10-22 08:09:52 51°19.877 2°37.16 306.1 10.5 312 22.6
2008-10-22 08:09:57 51°19.887 2°37.143 306.9 10.4 312 22.8
2008-10-22 08:10:01 51°19.895 2°37.13 307.5 10.4 312 23
2008-10-22 08:10:06 51°19.905 2°37.113 307.3 10.4 312 23
2008-10-22 08:10:11 51°19.914 2°37.095 307.1 10.5 313 22.8
2008-10-22 08:10:16 51°19.924 2°37.078 307.5 10.4 312 22.4
2008-10-22 08:10:21 51°19.934 2°37.061 307.5 10.5 313 22.4
2008-10-22 08:10:26 51°19.944 2°37.044 307.9 10.4 313 22.4
2008-10-22 08:10:31 51°19.953 2°37.027 308 10.4 312 22.4
2008-10-22 08:10:37 51°19.965 2°37.007 307.7 10.4 312 22.3
2008-10-22 08:10:41 51°19.973 2°36.993 307.1 10.4 312 22.5
2008-10-22 08:10:46 51°19.982 2°36.976 307.4 10.2 312 22.3
2008-10-22 08:10:51 51°19.991 2°36.959 307.2 9.8 311 22.5
2008-10-22 08:10:56 51°20 2°36.944 306.3 9.5 311 22.8
2008-10-22 08:11:01 51°20.008 2°36.929 306.4 9.2 312 22.6
2008-10-22 08:11:06 51°20.017 2°36.914 307 8.8 313 23.2
2008-10-22 08:11:11 51°20.025 2°36.902 307.5 8.1 315 23.2
2008-10-22 08:11:16 51°20.032 2°36.89 307.7 7.4 315 23.6
2008-10-22 08:11:21 51°20.038 2°36.88 307.7 6.7 317 23.5
2008-10-22 08:11:26 51°20.044 2°36.872 307.9 5.8 317 23.7
2008-10-22 08:11:31 51°20.049 2°36.865 307.7 4.9 319 24.1
2008-10-22 08:11:37 51°20.055 2°36.858 306.4 4.1 320 24
2008-10-22 08:11:41 51°20.057 2°36.855 305.2 3.3 325 23.5
2008-10-22 08:11:47 51°20.061 2°36.852 307.4 2.5 334 23.7
2008-10-22 08:11:51 51°20.063 2°36.851 309.9 1.9 346 23.4
2008-10-22 08:11:56 51°20.065 2°36.852 312.5 1.4 3 23.3
2008-10-22 08:12:01 51°20.066 2°36.853 315.4 1.3 29 23.2
2008-10-22 08:12:06 51°20.067 2°36.855 318.1 1 49 23.6
2008-10-22 08:12:12 51°20.068 2°36.858 321.5 1.2 65 23.5
2008-10-22 08:12:17 51°20.068 2°36.86 325.1 1.1 72 23.5
2008-10-22 08:12:21 51°20.069 2°36.861 328.6 1.1 64 23.5
2008-10-22 08:12:27 51°20.07 2°36.864 332.2 1.1 63 -999
2008-10-22 08:12:33 51°20.07 2°36.866 336.3 1.1 61 -999
2008-10-22 08:12:38 51°20.071 2°36.868 339.4 1.1 52 -999
2008-10-22 08:12:44 51°20.073 2°36.87 341.8 1.1 47 -999
2008-10-22 08:12:49 51°20.074 2°36.872 343.9 1.2 43 -999
2008-10-22 08:12:54 51°20.075 2°36.874 345.3 1.1 39 -999
2008-10-22 08:13:00 51°20.077 2°36.876 347.1 1.2 39 -999
2008-10-22 08:13:05 51°20.078 2°36.878 348.3 1.3 39 23.6
2008-10-22 08:13:10 51°20.079 2°36.88 349.3 1.3 43 23.7
2008-10-22 08:13:14 51°20.08 2°36.881 350.2 1.2 44 23.9
2008-10-22 08:13:20 51°20.082 2°36.884 351.2 1.3 42 5
2008-10-22 08:13:25 51°20.083 2°36.885 352.1 1.3 49 5.1
2008-10-22 08:13:30 51°20.084 2°36.888 353.1 1.2 47 23.2
2008-10-22 08:13:34 51°20.085 2°36.889 353.9 1.3 47 23
2008-10-22 08:13:39 51°20.086 2°36.891 354.7 1.3 47 22.9
2008-10-22 08:13:44 51°20.088 2°36.893 355.5 1.3 47 22.4
2008-10-22 08:13:49 51°20.089 2°36.895 356.3 1.3 45 22
2008-10-22 08:13:54 51°20.09 2°36.897 357 1.3 45 18.7
2008-10-22 08:13:59 51°20.091 2°36.899 357.6 1.3 46 20.9
2008-10-22 08:14:03 51°20.092 2°36.901 357.7 1.4 48 21.1
2008-10-22 08:14:09 51°20.094 2°36.904 358 1.3 46 20.3
2008-10-22 08:14:13 51°20.095 2°36.906 358.5 1.4 50 21.6
2008-10-22 08:14:18 51°20.096 2°36.909 359.1 1.3 50 22.1
2008-10-22 08:14:23 51°20.098 2°36.911 359.8 1.4 50 22.1
2008-10-22 08:14:28 51°20.099 2°36.913 0.6 1.4 49 22.6
2008-10-22 08:14:33 51°20.1 2°36.916 1.4 1.3 49 23.4
2008-10-22 08:14:37 51°20.101 2°36.918 2.1 1.4 52 23.9
2008-10-22 08:14:42 51°20.102 2°36.92 2.5 1.3 50 24.3
2008-10-22 08:14:47 51°20.103 2°36.922 3 1.4 49 24.5
2008-10-22 08:14:52 51°20.105 2°36.924 3.4 1.4 51 24.5
2008-10-22 08:14:57 51°20.106 2°36.927 3.6 1.3 52 24.3
2008-10-22 08:15:01 51°20.107 2°36.928 4.2 1.3 50 24.1
2008-10-22 08:15:06 51°20.108 2°36.93 4.4 1.3 51 24
2008-10-22 08:15:11 51°20.109 2°36.932 4.5 1.3 50 23.6
2008-10-22 08:15:17 51°20.11 2°36.935 4.6 1.3 47 23.3
2008-10-22 08:15:21 51°20.111 2°36.937 4.9 1.4 50 23.2
2008-10-22 08:15:26 51°20.112 2°36.939 5 1.3 49 23.1
2008-10-22 08:15:31 51°20.113 2°36.941 5.3 1.3 52 22.8
2008-10-22 08:15:37 51°20.115 2°36.944 5.7 1.3 50 22.3
2008-10-22 08:15:41 51°20.116 2°36.946 6.2 1.3 55 22.5
2008-10-22 08:15:46 51°20.117 2°36.948 6.7 1.3 54 22.8
2008-10-22 08:15:51 51°20.118 2°36.95 6.8 1.3 51 23
2008-10-22 08:15:56 51°20.119 2°36.953 6.9 1.4 55 23.1
2008-10-22 08:16:01 51°20.12 2°36.955 7 1.3 48 22.8
2008-10-22 08:16:06 51°20.121 2°36.957 7.2 1.4 54 22.8
2008-10-22 08:16:11 51°20.122 2°36.96 7.1 1.3 52 23.1
2008-10-22 08:16:16 51°20.123 2°36.962 6.9 1.4 55 23.2
2008-10-22 08:16:21 51°20.124 2°36.964 6.5 1.3 53 23
2008-10-22 08:16:27 51°20.125 2°36.968 6.4 1.4 58 22.9
2008-10-22 08:16:31 51°20.126 2°36.969 6.6 1.3 57 22.7
2008-10-22 08:16:36 51°20.127 2°36.972 6.6 1.3 56 22.3
2008-10-22 08:16:41 51°20.128 2°36.975 6.8 1.3 52 21.8
2008-10-22 08:16:46 51°20.129 2°36.977 6.9 1.4 58 20.7
2008-10-22 08:16:51 51°20.13 2°36.98 7.5 1.4 57 20.5
2008-10-22 08:16:57 51°20.131 2°36.983 7.7 1.4 59 20.9
2008-10-22 08:17:01 51°20.132 2°36.985 8.1 1.4 59 21.4
2008-10-22 08:17:06 51°20.133 2°36.987 8.1 1.3 57 21.6
2008-10-22 08:17:11 51°20.134 2°36.99 8.6 1.4 60 21.8
2008-10-22 08:17:17 51°20.135 2°36.993 8.8 1.3 59 21.9
2008-10-22 08:17:21 51°20.136 2°36.996 8.7 1.4 61 22.2
2008-10-22 08:17:26 51°20.137 2°36.998 8.6 1.3 59 22.4